Time;durP1;ratioP1;P1;durP2;ratioP2;P2;SDS_P1;SDS_P2;PMS_P1;PMS_P2;Temp;Humidity;BMP_temperature;BMP_pressure;BME280_temperature;BME280_humidity;BME280_pressure;Samples;Min_cycle;Max_cycle;Signal;HPM_P1;HPM_P2
2020/12/25 08:56:39;;;;;;;36.13;17.35;;;;;;;5.64;85.24;99394.81;1740813;77;22212;-63
2020/12/25 08:59:07;;;;;;;25.70;12.73;;;;;;;5.60;85.20;99407.09;1694977;84;21377;-63
2020/12/25 09:01:37;;;;;;;24.45;12.65;;;;;;;5.63;85.14;99406.71;1669281;86;21495;-62
2020/12/25 09:04:18;;;;;;;19.52;10.30;;;;;;;5.66;85.08;99399.02;1680540;85;21485;-62
2020/12/25 09:06:50;;;;;;;19.77;9.90;;;;;;;5.70;84.97;99396.25;1652614;86;21302;-62
2020/12/25 09:09:21;;;;;;;21.48;11.53;;;;;;;5.71;84.80;99395.73;1664545;85;21182;-65
2020/12/25 09:11:49;;;;;;;20.88;10.78;;;;;;;5.74;84.72;99391.27;1650749;86;21853;-63
2020/12/25 09:14:16;;;;;;;19.73;9.75;;;;;;;5.80;84.59;99392.38;1676124;85;21475;-61
2020/12/25 09:16:43;;;;;;;20.05;10.70;;;;;;;5.86;84.33;99394.36;1676157;85;21189;-63
2020/12/25 09:19:11;;;;;;;24.20;13.75;;;;;;;5.84;84.13;99386.37;1676121;85;21329;-60
2020/12/25 09:21:38;;;;;;;23.30;12.07;;;;;;;5.87;84.10;99389.25;1672660;85;21404;-61
2020/12/25 09:24:06;;;;;;;22.32;11.78;;;;;;;5.89;83.99;99381.27;1648642;87;21279;-61
2020/12/25 09:26:33;;;;;;;24.32;11.85;;;;;;;5.92;83.81;99386.83;1669269;86;21446;-63
2020/12/25 09:29:01;;;;;;;20.85;11.12;;;;;;;5.95;83.67;99381.84;1659829;86;21331;-61
2020/12/25 09:31:28;;;;;;;23.62;12.40;;;;;;;6.00;83.55;99386.19;1659529;85;21201;-62
2020/12/25 09:33:56;;;;;;;25.75;13.03;;;;;;;6.07;83.41;99385.41;1669056;85;21497;-63
2020/12/25 09:36:23;;;;;;;31.33;15.78;;;;;;;6.08;83.25;99387.09;1676031;85;21974;-61
2020/12/25 09:38:54;;;;;;;28.45;14.18;;;;;;;6.09;83.08;99391.50;1668592;85;21292;-62
2020/12/25 09:41:28;;;;;;;27.55;12.90;;;;;;;6.10;82.88;99394.02;1634425;86;21172;-62
2020/12/25 09:44:02;;;;;;;23.45;13.13;;;;;;;6.11;82.81;99395.71;1639817;87;21221;-62
2020/12/25 09:46:29;;;;;;;27.90;15.18;;;;;;;6.11;82.71;99397.06;1644570;87;21204;-61
2020/12/25 09:48:57;;;;;;;22.37;12.55;;;;;;;6.09;82.70;99394.22;1672948;85;21833;-63
2020/12/25 09:51:33;;;;;;;24.87;11.65;;;;;;;6.12;82.80;99388.39;1654823;85;21228;-65
2020/12/25 09:54:01;;;;;;;19.25;11.68;;;;;;;6.11;82.62;99381.27;1671769;85;21301;-64
2020/12/25 09:56:29;;;;;;;23.42;11.30;;;;;;;6.12;82.56;99381.59;1633941;85;21447;-64
2020/12/25 09:58:56;;;;;;;21.05;11.63;;;;;;;6.13;82.49;99379.20;1604638;89;21484;-69
2020/12/25 10:01:24;;;;;;;22.10;12.90;;;;;;;6.14;82.46;99371.36;1632391;86;21925;-70
2020/12/25 10:03:51;;;;;;;24.77;13.45;;;;;;;6.17;82.35;99378.62;1636238;86;21757;-64
2020/12/25 10:06:20;;;;;;;21.62;11.68;;;;;;;6.20;82.29;99370.07;1632790;87;21398;-63
2020/12/25 10:08:47;;;;;;;22.67;12.65;;;;;;;6.23;82.24;99360.67;1613233;87;21416;-63
2020/12/25 10:11:21;;;;;;;20.72;12.05;;;;;;;6.27;82.07;99359.25;1637178;86;21933;-62
2020/12/25 10:13:48;;;;;;;20.40;12.05;;;;;;;6.31;82.01;99357.81;1638614;87;21831;-64
2020/12/25 10:16:18;;;;;;;22.77;12.07;;;;;;;6.33;81.83;99357.95;1638485;87;21666;-61
2020/12/25 10:18:45;;;;;;;27.87;15.00;;;;;;;6.35;81.67;99359.11;1638774;87;21338;-64
2020/12/25 10:21:18;;;;;;;19.00;11.88;;;;;;;6.38;81.47;99361.95;1637225;87;21418;-64
2020/12/25 10:23:45;;;;;;;16.55;9.45;;;;;;;6.41;81.35;99365.12;1629950;88;21980;-64
2020/12/25 10:26:13;;;;;;;21.25;10.40;;;;;;;6.42;81.17;99352.36;1630267;88;21305;-63
2020/12/25 10:28:40;;;;;;;20.40;11.00;;;;;;;6.44;81.14;99358.45;1630198;88;21828;-63
2020/12/25 10:31:10;;;;;;;20.52;11.68;;;;;;;6.46;81.09;99356.38;1630271;88;21338;-63
2020/12/25 10:33:39;;;;;;;15.80;9.43;;;;;;;6.47;81.02;99356.70;1638075;86;21409;-63
2020/12/25 10:36:21;;;;;;;16.17;9.20;;;;;;;6.53;81.02;99358.66;1643583;86;21189;-65
2020/12/25 10:38:50;;;;;;;15.90;8.95;;;;;;;6.58;80.97;99357.03;1636896;87;21353;-61
2020/12/25 10:41:17;;;;;;;16.77;9.45;;;;;;;6.59;80.77;99372.84;1612318;88;21459;-61
2020/12/25 10:43:47;;;;;;;17.00;9.48;;;;;;;6.60;80.74;99378.08;1612445;88;21469;-62
2020/12/25 10:46:22;;;;;;;18.82;9.75;;;;;;;6.63;80.71;99384.49;1620373;87;21763;-62
2020/12/25 10:48:50;;;;;;;22.22;10.78;;;;;;;6.64;80.58;99381.25;1609825;89;21491;-62
2020/12/25 10:51:25;;;;;;;16.87;9.98;;;;;;;6.71;80.59;99385.38;1609676;87;21894;-68
2020/12/25 10:53:53;;;;;;;21.65;11.55;;;;;;;6.78;80.58;99378.11;1616375;86;21487;-65
2020/12/25 10:56:26;;;;;;;30.48;16.15;;;;;;;6.81;80.46;99384.52;1621583;88;21231;-66
2020/12/25 10:58:54;;;;;;;29.15;13.72;;;;;;;6.85;80.48;99385.80;1652582;85;21548;-70
2020/12/25 11:01:29;;;;;;;23.22;11.28;;;;;;;6.89;80.26;99391.17;1653556;86;21198;-67
2020/12/25 11:03:57;;;;;;;19.45;9.08;;;;;;;6.90;80.11;99395.58;1658161;86;21185;-64
2020/12/25 11:06:35;;;;;;;15.98;9.58;;;;;;;6.88;79.96;99392.22;1654118;86;21447;-63
2020/12/25 11:09:18;;;;;;;15.72;9.03;;;;;;;6.84;79.93;99393.13;1663402;86;21189;-65
2020/12/25 11:12:05;;;;;;;15.90;8.10;;;;;;;6.84;79.78;99400.45;1606659;89;21334;-66
2020/12/25 11:14:47;;;;;;;;;;;;;;;6.83;79.63;99402.86;1665783;85;21168;-67
2020/12/25 11:17:18;;;;;;;12.57;7.63;;;;;;;6.79;79.05;99408.38;1663787;86;20226;-66
2020/12/25 11:19:55;;;;;;;11.60;7.05;;;;;;;6.75;78.94;99405.73;1663037;86;21169;-68
2020/12/25 11:22:23;;;;;;;12.30;6.97;;;;;;;6.73;78.79;99406.45;1666021;84;21212;-69
2020/12/25 11:24:50;;;;;;;15.00;7.78;;;;;;;6.71;78.74;99405.80;1688224;84;21211;-70
2020/12/25 11:27:18;;;;;;;13.18;8.23;;;;;;;6.74;78.76;99421.22;1688742;84;21181;-67
2020/12/25 11:29:45;;;;;;;19.40;11.28;;;;;;;6.77;78.39;99413.17;1691873;84;21202;-68
2020/12/25 11:32:13;;;;;;;16.23;8.70;;;;;;;6.78;78.29;99414.86;1691968;84;21329;-70
2020/12/25 11:34:40;;;;;;;13.20;7.60;;;;;;;6.79;78.24;99413.83;1670527;84;21173;-69
2020/12/25 11:37:08;;;;;;;24.55;11.22;;;;;;;6.79;78.09;99416.55;1676278;83;21385;-71
2020/12/25 11:39:36;;;;;;;28.47;17.32;;;;;;;6.74;77.83;99431.27;1689624;84;21147;-66
2020/12/25 11:42:04;;;;;;;21.52;11.43;;;;;;;6.66;77.67;99433.61;1691792;84;21130;-66
2020/12/25 11:44:32;;;;;;;20.23;12.13;;;;;;;6.60;77.61;99436.59;1688942;83;21825;-67
2020/12/25 11:47:00;;;;;;;26.55;15.70;;;;;;;6.58;77.73;99438.67;1691915;84;21159;-68
2020/12/25 11:49:27;;;;;;;25.82;12.13;;;;;;;6.56;77.68;99436.66;1688142;84;21451;-66
2020/12/25 11:51:56;;;;;;;21.02;11.80;;;;;;;6.54;77.49;99446.06;1691968;84;21864;-66
2020/12/25 11:54:24;;;;;;;13.75;7.87;;;;;;;6.54;77.53;99446.06;1692045;84;21377;-67
2020/12/25 11:56:53;;;;;;;18.20;9.73;;;;;;;6.53;77.46;99451.19;1691018;84;21410;-67
2020/12/25 11:59:21;;;;;;;30.48;14.90;;;;;;;6.48;77.51;99449.53;1658128;85;21909;-66
2020/12/25 12:01:49;;;;;;;19.70;10.55;;;;;;;6.46;77.48;99440.72;1657103;85;21166;-65
2020/12/25 12:04:16;;;;;;;18.32;9.75;;;;;;;6.43;77.43;99437.87;1684450;85;21447;-65
2020/12/25 12:06:44;;;;;;;14.68;7.78;;;;;;;6.44;77.41;99440.91;1690411;85;21805;-66
2020/12/25 12:09:12;;;;;;;12.60;7.70;;;;;;;6.46;77.42;99448.36;1690369;85;21176;-70
2020/12/25 12:11:43;;;;;;;13.32;7.03;;;;;;;6.45;77.48;99441.76;1690684;85;21298;-70
2020/12/25 12:14:10;;;;;;;13.08;7.62;;;;;;;6.44;77.51;99431.91;1690503;85;21227;-68
2020/12/25 12:16:38;;;;;;;15.00;8.70;;;;;;;6.44;77.55;99442.28;1673763;85;21447;-64
2020/12/25 12:19:08;;;;;;;18.40;9.88;;;;;;;6.47;77.62;99441.89;1675525;85;21460;-69
2020/12/25 12:21:36;;;;;;;16.90;10.05;;;;;;;6.50;77.64;99440.66;1682249;85;21412;-68
2020/12/25 12:24:04;;;;;;;14.93;9.05;;;;;;;6.55;77.65;99439.06;1690453;85;21404;-68
2020/12/25 12:26:31;;;;;;;13.62;8.25;;;;;;;6.58;77.60;99445.48;1690376;85;21199;-68
2020/12/25 12:28:58;;;;;;;15.88;9.45;;;;;;;6.60;77.52;99428.95;1690333;85;21173;-67
2020/12/25 12:31:26;;;;;;;16.90;10.18;;;;;;;6.57;77.51;99431.55;1686774;85;21243;-72
2020/12/25 12:33:53;;;;;;;14.85;8.78;;;;;;;6.57;77.51;99427.98;1690555;85;21445;-74
2020/12/25 12:36:20;;;;;;;16.17;9.58;;;;;;;6.59;77.47;99433.55;1692294;85;21179;-72
2020/12/25 12:38:48;;;;;;;22.52;11.73;;;;;;;6.57;77.38;99423.38;1692328;85;21931;-71
2020/12/25 12:41:15;;;;;;;18.27;11.70;;;;;;;6.56;77.43;99424.42;1692392;85;21196;-74
2020/12/25 12:43:43;;;;;;;22.95;11.73;;;;;;;6.57;77.54;99424.74;1692470;83;21167;-73
2020/12/25 12:46:10;;;;;;;19.57;11.00;;;;;;;6.58;77.59;99429.67;1691498;85;21185;-66
2020/12/25 12:48:37;;;;;;;17.92;10.40;;;;;;;6.61;77.58;99438.28;1690112;85;21449;-69
2020/12/25 12:51:05;;;;;;;18.62;10.70;;;;;;;6.62;77.61;99434.52;1688736;85;21373;-69
2020/12/25 12:53:32;;;;;;;18.15;9.85;;;;;;;6.65;77.56;99450.98;1690234;85;21277;-64
2020/12/25 12:55:59;;;;;;;17.00;10.18;;;;;;;6.67;77.56;99452.98;1690170;85;22010;-69
2020/12/25 12:58:27;;;;;;;19.80;10.55;;;;;;;6.64;77.56;99459.66;1690214;85;21183;-68
2020/12/25 13:00:57;;;;;;;21.30;11.93;;;;;;;6.64;77.62;99457.46;1690515;85;21203;-69
2020/12/25 13:03:24;;;;;;;18.05;10.82;;;;;;;6.64;77.65;99458.82;1676691;85;21229;-70
2020/12/25 13:05:51;;;;;;;18.62;10.50;;;;;;;6.62;77.62;99459.02;1667748;85;21413;-69
2020/12/25 13:08:20;;;;;;;19.07;11.12;;;;;;;6.62;77.60;99464.46;1690215;85;21357;-67
2020/12/25 13:10:48;;;;;;;22.55;13.13;;;;;;;6.59;77.67;99467.57;1690254;85;21297;-67
2020/12/25 13:13:17;;;;;;;20.40;11.80;;;;;;;6.59;77.76;99464.01;1690240;85;21439;-70
2020/12/25 13:15:44;;;;;;;21.52;11.68;;;;;;;6.57;77.77;99469.64;1690283;85;21842;-65
2020/12/25 13:18:12;;;;;;;19.30;10.68;;;;;;;6.57;77.74;99470.17;1657791;86;21439;-67
2020/12/25 13:20:40;;;;;;;19.17;10.28;;;;;;;6.55;77.74;99469.00;1656629;86;21362;-67
2020/12/25 13:23:08;;;;;;;19.25;10.85;;;;;;;6.57;77.76;99467.45;1629875;88;21920;-68
2020/12/25 13:25:36;;;;;;;18.95;10.38;;;;;;;6.59;77.72;99477.09;1609626;88;21196;-71
2020/12/25 13:28:03;;;;;;;17.42;10.60;;;;;;;6.56;77.73;99463.88;1628877;88;21875;-70
2020/12/25 13:30:33;;;;;;;19.48;10.45;;;;;;;6.53;77.63;99483.31;1629089;88;21475;-69
2020/12/25 13:33:01;;;;;;;19.67;9.58;;;;;;;6.49;77.68;99484.71;1616257;86;21358;-69
2020/12/25 13:35:28;;;;;;;17.32;9.73;;;;;;;6.48;77.67;99484.39;1657012;86;21183;-64
2020/12/25 13:37:57;;;;;;;16.42;10.08;;;;;;;6.48;77.59;99484.91;1657077;86;21371;-70
2020/12/25 13:40:24;;;;;;;20.05;10.90;;;;;;;6.47;77.64;99489.50;1656656;85;21415;-71
2020/12/25 13:42:52;;;;;;;17.60;10.50;;;;;;;6.45;77.59;99492.94;1659597;86;21187;-71
2020/12/25 13:45:19;;;;;;;22.73;11.78;;;;;;;6.39;77.54;99499.16;1636717;87;21215;-66
2020/12/25 13:47:47;;;;;;;20.48;10.78;;;;;;;6.35;77.59;99508.73;1629121;88;21561;-63
2020/12/25 13:50:14;;;;;;;18.05;11.03;;;;;;;6.32;77.53;99506.40;1628976;88;21194;-62
2020/12/25 13:52:41;;;;;;;21.17;11.63;;;;;;;6.28;77.57;99510.54;1628876;88;21377;-62
2020/12/25 13:55:09;;;;;;;21.37;12.07;;;;;;;6.23;77.61;99511.63;1628899;88;21450;-62
2020/12/25 13:57:36;;;;;;;20.27;11.08;;;;;;;6.18;77.65;99504.05;1627691;86;21321;-62
2020/12/25 14:00:04;;;;;;;20.37;11.33;;;;;;;6.14;77.72;99503.27;1641528;87;21304;-61
2020/12/25 14:02:33;;;;;;;21.02;11.18;;;;;;;6.10;77.80;99497.87;1651950;86;21182;-62
2020/12/25 14:05:00;;;;;;;24.65;11.40;;;;;;;6.07;77.76;99500.47;1652561;86;21347;-63
2020/12/25 14:07:28;;;;;;;22.80;12.53;;;;;;;6.06;77.79;99495.22;1638945;87;21583;-63
2020/12/25 14:09:56;;;;;;;25.02;12.93;;;;;;;6.02;77.78;99498.31;1638757;87;21470;-63
2020/12/25 14:12:25;;;;;;;20.27;11.83;;;;;;;5.97;77.88;99496.69;1638767;87;21245;-63
2020/12/25 14:14:52;;;;;;;20.32;10.68;;;;;;;5.95;78.02;99504.70;1638740;87;21510;-64
2020/12/25 14:17:20;;;;;;;20.88;10.68;;;;;;;5.91;78.03;99500.68;1638633;87;21306;-64
2020/12/25 14:19:47;;;;;;;19.35;11.53;;;;;;;5.86;78.10;99497.66;1638726;87;21370;-63
2020/12/25 14:22:14;;;;;;;21.23;10.85;;;;;;;5.86;78.17;99494.42;1626262;87;21377;-62
2020/12/25 14:24:42;;;;;;;21.87;11.45;;;;;;;5.84;78.17;99483.37;1610985;87;21174;-64
2020/12/25 14:27:09;;;;;;;21.93;12.15;;;;;;;5.81;78.21;99488.68;1611091;88;21337;-63
2020/12/25 14:29:37;;;;;;;23.18;11.48;;;;;;;5.80;78.22;99482.91;1610990;89;21194;-64
2020/12/25 14:32:04;;;;;;;22.52;10.55;;;;;;;5.78;78.23;99480.91;1629622;86;21780;-65
2020/12/25 14:34:32;;;;;;;17.77;10.05;;;;;;;5.79;78.36;99507.05;1643290;86;21327;-65
2020/12/25 14:36:59;;;;;;;22.15;10.55;;;;;;;5.80;78.31;99509.25;1643158;86;21208;-66
2020/12/25 14:39:26;;;;;;;23.02;11.45;;;;;;;5.80;78.30;99512.81;1638502;86;21198;-66
2020/12/25 14:42:04;;;;;;;18.80;10.45;;;;;;;5.79;78.44;99505.69;1631830;86;21343;-68
2020/12/25 14:44:33;;;;;;;22.05;11.60;;;;;;;5.79;78.46;99504.84;1643484;86;21809;-62
2020/12/25 14:47:07;;;;;;;41.02;18.48;;;;;;;5.78;78.52;99514.88;1638619;86;22023;-67
2020/12/25 14:49:39;;;;;;;36.40;17.62;;;;;;;5.77;78.49;99521.86;1637612;86;21544;-67
2020/12/25 14:52:08;;;;;;;28.40;15.15;;;;;;;5.76;78.56;99525.09;1650982;86;21622;-70
2020/12/25 14:54:38;;;;;;;33.00;17.02;;;;;;;5.76;78.61;99525.61;1640433;86;21913;-69
2020/12/25 14:57:07;;;;;;;38.40;19.15;;;;;;;5.75;78.61;99523.41;1602336;88;21434;-64
2020/12/25 14:59:34;;;;;;;42.78;18.67;;;;;;;5.73;78.48;99526.31;1621590;88;21478;-64
2020/12/25 15:02:02;;;;;;;48.55;23.98;;;;;;;5.72;78.50;99530.06;1626350;87;21499;-64
2020/12/25 15:04:30;;;;;;;62.80;30.43;;;;;;;5.72;78.35;99537.38;1645346;85;21189;-64
2020/12/25 15:07:02;;;;;;;59.13;28.55;;;;;;;5.73;78.35;99540.42;1644584;87;21239;-66
2020/12/25 15:09:30;;;;;;;37.08;19.30;;;;;;;5.74;78.29;99542.11;1640541;87;21216;-65
2020/12/25 15:12:02;;;;;;;32.00;15.45;;;;;;;5.75;78.28;99542.44;1641663;86;21368;-68
2020/12/25 15:14:29;;;;;;;31.37;14.03;;;;;;;5.77;78.23;99544.97;1645449;86;21876;-69
2020/12/25 15:16:57;;;;;;;31.33;13.50;;;;;;;5.75;78.07;99541.08;1636311;87;22167;-67
2020/12/25 15:19:24;;;;;;;13.08;6.55;;;;;;;5.74;77.94;99562.49;1638903;87;21186;-68
2020/12/25 15:21:53;;;;;;;15.00;6.90;;;;;;;5.66;76.87;99577.02;1631876;87;21377;-68
2020/12/25 15:24:23;;;;;;;12.82;6.12;;;;;;;5.58;76.46;99574.90;1637585;86;21288;-67
2020/12/25 15:26:52;;;;;;;9.48;5.08;;;;;;;5.50;75.97;99571.75;1623348;87;21246;-65
2020/12/25 15:29:20;;;;;;;8.48;4.12;;;;;;;5.40;75.18;99592.39;1623836;88;21247;-65
2020/12/25 15:31:50;;;;;;;6.25;3.30;;;;;;;5.29;74.65;99602.34;1614904;88;21448;-65
2020/12/25 15:34:19;;;;;;;6.75;3.65;;;;;;;5.22;73.67;99603.26;1571635;89;21385;-64
2020/12/25 15:36:58;;;;;;;6.80;3.10;;;;;;;5.13;73.21;99607.88;1600754;89;21250;-65
2020/12/25 15:39:23;;;;;;;9.20;3.98;;;;;;;5.09;72.93;99607.91;1602342;88;21999;-63
2020/12/25 15:41:52;;;;;;;7.05;3.17;;;;;;;5.02;72.48;99631.39;1615360;88;21412;-64
2020/12/25 15:44:22;;;;;;;7.12;3.27;;;;;;;4.95;72.34;99627.19;1615410;88;21180;-66
2020/12/25 15:46:53;;;;;;;6.00;2.75;;;;;;;4.90;72.34;99627.41;1597495;88;21256;-65
2020/12/25 15:49:23;;;;;;;6.28;3.00;;;;;;;4.86;72.15;99638.28;1600890;87;21463;-63
2020/12/25 15:51:56;;;;;;;5.45;2.70;;;;;;;4.78;72.18;99633.75;1628804;87;21337;-62
2020/12/25 15:54:23;;;;;;;8.95;3.33;;;;;;;4.71;71.88;99649.91;1628689;87;21198;-63
2020/12/25 15:56:53;;;;;;;4.50;2.30;;;;;;;4.67;71.98;99650.44;1628510;87;21248;-63
2020/12/25 15:59:20;;;;;;;10.30;3.65;;;;;;;4.65;71.78;99647.06;1663999;86;22069;-63
2020/12/25 16:01:48;;;;;;;6.60;2.87;;;;;;;4.65;71.57;99641.64;1664075;86;21260;-62
2020/12/25 16:04:16;;;;;;;7.37;3.10;;;;;;;4.62;71.02;99641.48;1663981;86;21458;-64
2020/12/25 16:06:45;;;;;;;8.78;3.10;;;;;;;4.61;71.10;99647.09;1663855;84;21479;-63
2020/12/25 16:09:12;;;;;;;6.75;2.45;;;;;;;4.61;70.81;99641.66;1663281;86;21455;-64
2020/12/25 16:11:42;;;;;;;6.05;2.10;;;;;;;4.57;70.09;99643.04;1658858;86;21301;-63
2020/12/25 16:14:09;;;;;;;5.22;2.50;;;;;;;4.54;69.90;99648.79;1662966;86;21175;-64
2020/12/25 16:16:37;;;;;;;4.30;2.08;;;;;;;4.53;69.64;99660.15;1663914;86;21319;-63
2020/12/25 16:19:05;;;;;;;5.10;2.00;;;;;;;4.54;69.61;99658.28;1663935;86;21401;-63
2020/12/25 16:21:34;;;;;;;3.50;1.80;;;;;;;4.54;69.73;99659.64;1664142;86;21171;-64
2020/12/25 16:24:02;;;;;;;4.12;1.85;;;;;;;4.52;69.82;99662.53;1663925;86;21885;-65
2020/12/25 16:26:30;;;;;;;4.67;1.90;;;;;;;4.49;69.76;99663.39;1664080;86;21248;-64
2020/12/25 16:28:59;;;;;;;3.80;1.85;;;;;;;4.46;69.93;99662.73;1664001;86;21846;-63
2020/12/25 16:31:29;;;;;;;4.25;1.42;;;;;;;4.46;69.88;99656.45;1663979;86;21890;-62
2020/12/25 16:33:57;;;;;;;2.35;1.30;;;;;;;4.45;69.91;99666.45;1663924;86;21401;-62
2020/12/25 16:36:24;;;;;;;2.85;1.37;;;;;;;4.44;69.97;99676.13;1653835;86;22196;-63
2020/12/25 16:38:52;;;;;;;3.87;1.90;;;;;;;4.37;69.65;99671.92;1607724;89;22012;-64
2020/12/25 16:41:20;;;;;;;3.22;1.90;;;;;;;4.35;69.79;99681.25;1607602;89;21305;-63
2020/12/25 16:43:47;;;;;;;3.92;2.02;;;;;;;4.29;70.19;99682.80;1636740;87;21173;-63
2020/12/25 16:46:15;;;;;;;3.10;1.70;;;;;;;4.28;70.13;99689.24;1636754;87;21510;-63
2020/12/25 16:48:42;;;;;;;3.37;1.60;;;;;;;4.26;70.22;99683.66;1636811;87;21872;-63
2020/12/25 16:51:09;;;;;;;2.65;1.22;;;;;;;4.27;70.39;99690.77;1607654;89;21391;-65
2020/12/25 16:53:37;;;;;;;2.25;1.10;;;;;;;4.27;70.27;99699.75;1607738;89;21465;-64
2020/12/25 16:56:04;;;;;;;3.50;1.62;;;;;;;4.26;70.04;99703.48;1625287;87;21956;-63
2020/12/25 16:58:32;;;;;;;3.85;1.80;;;;;;;4.22;70.03;99711.63;1648586;86;21234;-63
2020/12/25 17:01:00;;;;;;;4.00;1.77;;;;;;;4.21;70.13;99718.58;1641590;87;21238;-63
2020/12/25 17:03:27;;;;;;;2.58;1.55;;;;;;;4.18;70.20;99720.28;1641395;86;21409;-64
2020/12/25 17:05:54;;;;;;;2.47;1.40;;;;;;;4.16;70.21;99725.03;1631352;87;21527;-63
2020/12/25 17:08:22;;;;;;;5.10;1.75;;;;;;;4.12;70.27;99728.09;1601280;88;21560;-63
2020/12/25 17:10:50;;;;;;;2.17;1.37;;;;;;;4.06;70.01;99727.94;1634091;87;21252;-63
2020/12/25 17:13:17;;;;;;;4.33;2.02;;;;;;;4.02;70.11;99730.14;1630840;87;21516;-63
2020/12/25 17:15:45;;;;;;;2.62;1.25;;;;;;;3.97;70.29;99736.59;1638991;87;21907;-62
2020/12/25 17:18:12;;;;;;;2.10;1.30;;;;;;;3.95;70.42;99729.14;1630555;87;21948;-62
2020/12/25 17:20:40;;;;;;;2.67;1.42;;;;;;;3.95;70.64;99729.14;1626742;88;21433;-63
2020/12/25 17:23:07;;;;;;;2.60;1.27;;;;;;;3.95;70.71;99729.14;1594939;89;21197;-65
2020/12/25 17:25:35;;;;;;;4.28;1.72;;;;;;;3.91;71.09;99741.34;1605954;88;21473;-64
2020/12/25 17:28:03;;;;;;;8.00;3.15;;;;;;;3.85;71.56;99762.32;1595520;88;21309;-63
2020/12/25 17:30:31;;;;;;;3.72;1.80;;;;;;;3.79;72.05;99770.62;1583084;88;21197;-64
2020/12/25 17:32:58;;;;;;;2.60;1.62;;;;;;;3.75;72.51;99770.63;1627936;87;21171;-63
2020/12/25 17:35:26;;;;;;;3.77;1.60;;;;;;;3.72;72.93;99760.62;1597121;89;21902;-63
2020/12/25 17:37:53;;;;;;;2.05;1.30;;;;;;;3.66;73.11;99764.02;1607988;89;21169;-62
2020/12/25 17:40:20;;;;;;;4.62;2.42;;;;;;;3.61;73.29;99765.03;1629844;88;21984;-64
2020/12/25 17:42:48;;;;;;;5.12;2.40;;;;;;;3.62;73.45;99764.02;1630174;88;21246;-64
2020/12/25 17:45:15;;;;;;;2.75;1.60;;;;;;;3.62;73.65;99760.80;1629442;88;21380;-63
2020/12/25 17:47:43;;;;;;;3.40;1.98;;;;;;;3.65;73.76;99775.86;1622096;87;21977;-63
2020/12/25 17:50:10;;;;;;;3.67;2.00;;;;;;;3.61;73.62;99759.11;1615732;88;21227;-64
2020/12/25 17:52:39;;;;;;;4.37;2.08;;;;;;;3.60;73.75;99757.92;1597792;89;21851;-64
2020/12/25 17:55:06;;;;;;;4.65;2.67;;;;;;;3.59;73.91;99753.02;1608210;87;21758;-63
2020/12/25 17:57:34;;;;;;;6.45;3.00;;;;;;;3.62;73.97;99746.41;1593808;88;21671;-64
2020/12/25 18:00:01;;;;;;;5.53;2.92;;;;;;;3.63;74.05;99745.39;1603172;88;21449;-63
2020/12/25 18:02:30;;;;;;;4.47;2.50;;;;;;;3.64;73.98;99753.86;1614882;88;21312;-62
2020/12/25 18:04:58;;;;;;;3.45;1.92;;;;;;;3.61;73.94;99753.69;1618426;88;21895;-63
2020/12/25 18:07:25;;;;;;;3.27;2.10;;;;;;;3.59;73.93;99763.84;1607978;88;21444;-63
2020/12/25 18:09:53;;;;;;;3.40;2.10;;;;;;;3.58;73.81;99775.70;1577866;89;21433;-63
2020/12/25 18:12:22;;;;;;;3.85;1.90;;;;;;;3.58;73.56;99773.49;1614306;88;21331;-64
2020/12/25 18:14:49;;;;;;;3.98;1.87;;;;;;;3.54;73.53;99770.78;1602344;89;21212;-64
2020/12/25 18:17:17;;;;;;;3.37;1.98;;;;;;;3.50;73.52;99769.77;1629962;88;21952;-64
2020/12/25 18:19:44;;;;;;;2.70;1.52;;;;;;;3.50;73.21;99777.89;1623688;88;21463;-63
2020/12/25 18:22:14;;;;;;;3.55;2.00;;;;;;;3.44;73.15;99766.38;1629877;88;21360;-64
2020/12/25 18:24:42;;;;;;;4.15;2.10;;;;;;;3.43;73.41;99767.39;1602890;89;21459;-63
2020/12/25 18:27:09;;;;;;;5.17;2.72;;;;;;;3.45;73.36;99770.77;1602629;89;21921;-62
2020/12/25 18:29:38;;;;;;;6.45;2.40;;;;;;;3.47;73.30;99771.95;1602545;89;21245;-66
2020/12/25 18:32:06;;;;;;;5.47;2.30;;;;;;;3.47;73.35;99774.16;1579605;89;21400;-63
2020/12/25 18:34:34;;;;;;;6.05;2.80;;;;;;;3.46;73.27;99775.17;1629820;88;21257;-64
2020/12/25 18:37:01;;;;;;;10.80;4.40;;;;;;;3.44;73.38;99782.63;1630119;88;21226;-67
2020/12/25 18:39:29;;;;;;;10.20;3.47;;;;;;;3.46;73.31;99795.99;1630134;88;21859;-66
2020/12/25 18:41:56;;;;;;;7.10;3.33;;;;;;;3.45;73.06;99788.37;1630194;88;21319;-64
2020/12/25 18:44:23;;;;;;;7.00;3.12;;;;;;;3.43;72.92;99783.63;1629997;88;21446;-63
2020/12/25 18:46:51;;;;;;;5.90;2.90;;;;;;;3.42;72.79;99774.33;1630081;88;21345;-64
2020/12/25 18:49:18;;;;;;;4.72;2.37;;;;;;;3.43;72.94;99772.80;1629965;88;21460;-64
2020/12/25 18:51:45;;;;;;;3.47;2.08;;;;;;;3.44;72.83;99776.36;1630074;88;21312;-64
2020/12/25 18:54:13;;;;;;;6.22;3.05;;;;;;;3.43;72.74;99776.02;1629989;88;21559;-65
2020/12/25 18:56:40;;;;;;;5.40;2.45;;;;;;;3.44;72.57;99785.84;1630026;88;21447;-64
2020/12/25 18:59:08;;;;;;;5.70;2.87;;;;;;;3.42;72.25;99787.86;1631794;87;21222;-65
2020/12/25 19:01:35;;;;;;;6.03;2.60;;;;;;;3.38;72.01;99798.18;1633687;87;21562;-63
2020/12/25 19:04:03;;;;;;;5.62;2.65;;;;;;;3.34;72.04;99800.03;1633721;87;21437;-63
2020/12/25 19:06:38;;;;;;;4.35;2.50;;;;;;;3.31;72.05;99805.27;1633824;87;21476;-66
2020/12/25 19:09:07;;;;;;;5.37;2.20;;;;;;;3.30;72.05;99793.26;1633957;87;21208;-64
2020/12/25 19:11:34;;;;;;;3.22;1.75;;;;;;;3.25;72.01;99795.58;1633736;87;21693;-64
2020/12/25 19:14:02;;;;;;;4.05;2.15;;;;;;;3.28;71.94;99802.05;1633716;87;21205;-64
2020/12/25 19:16:30;;;;;;;4.17;2.40;;;;;;;3.26;71.82;99795.45;1633785;87;21245;-63
2020/12/25 19:18:57;;;;;;;4.00;2.15;;;;;;;3.23;71.68;99796.25;1633834;87;21343;-63
2020/12/25 19:21:25;;;;;;;4.12;2.37;;;;;;;3.20;71.88;99804.20;1633840;87;21975;-64
2020/12/25 19:23:52;;;;;;;3.92;2.15;;;;;;;3.19;72.02;99810.13;1633737;87;21604;-63
2020/12/25 19:26:20;;;;;;;5.20;2.65;;;;;;;3.20;71.86;99815.03;1633684;87;21213;-64
2020/12/25 19:28:48;;;;;;;5.50;2.05;;;;;;;3.22;71.99;99807.59;1633825;87;21443;-64
2020/12/25 19:31:15;;;;;;;6.28;3.35;;;;;;;3.26;71.70;99808.14;1633760;87;21503;-64
2020/12/25 19:33:43;;;;;;;7.47;3.50;;;;;;;3.27;71.60;99816.09;1633918;87;21335;-63
2020/12/25 19:36:10;;;;;;;12.40;4.80;;;;;;;3.31;71.53;99811.20;1633857;87;21376;-63
2020/12/25 19:38:39;;;;;;;7.92;3.72;;;;;;;3.31;71.06;99813.91;1634052;87;21357;-63
2020/12/25 19:41:07;;;;;;;12.30;4.60;;;;;;;3.27;70.68;99824.22;1627448;88;21469;-62
2020/12/25 19:43:35;;;;;;;9.85;4.15;;;;;;;3.24;70.54;99829.92;1607506;89;21463;-62
2020/12/25 19:46:04;;;;;;;11.08;4.10;;;;;;;3.24;70.13;99831.28;1661226;86;21191;-62
2020/12/25 19:48:31;;;;;;;12.35;4.78;;;;;;;3.23;70.07;99835.00;1663984;86;21486;-63
2020/12/25 19:50:59;;;;;;;10.60;4.42;;;;;;;3.24;70.14;99836.70;1663972;86;21433;-62
2020/12/25 19:53:27;;;;;;;10.03;3.90;;;;;;;3.24;70.29;99839.40;1663878;86;21203;-63
2020/12/25 19:55:54;;;;;;;6.97;2.90;;;;;;;3.24;69.95;99840.75;1663928;86;21381;-63
2020/12/25 19:58:21;;;;;;;5.15;2.10;;;;;;;3.19;69.96;99835.83;1663730;86;21206;-64
2020/12/25 20:00:49;;;;;;;6.40;2.40;;;;;;;3.17;70.11;99835.66;1663911;86;21183;-64
2020/12/25 20:03:16;;;;;;;4.25;2.27;;;;;;;3.11;70.09;99831.75;1663924;86;21510;-62
2020/12/25 20:05:47;;;;;;;4.78;2.50;;;;;;;3.12;70.34;99843.42;1663937;86;21171;-63
2020/12/25 20:08:13;;;;;;;4.72;2.08;;;;;;;3.13;70.42;99850.53;1663773;86;21906;-62
2020/12/25 20:10:40;;;;;;;7.37;3.58;;;;;;;3.14;70.69;99850.88;1663918;86;21167;-61
2020/12/25 20:13:08;;;;;;;6.80;2.47;;;;;;;3.16;70.66;99851.55;1663875;86;21986;-64
2020/12/25 20:15:35;;;;;;;4.30;2.30;;;;;;;3.18;70.56;99848.18;1663907;86;21317;-62
2020/12/25 20:18:03;;;;;;;3.45;1.98;;;;;;;3.17;70.55;99845.98;1663924;86;21914;-61
2020/12/25 20:20:30;;;;;;;3.83;1.90;;;;;;;3.22;70.83;99844.64;1663966;86;21435;-62
2020/12/25 20:22:58;;;;;;;3.42;1.87;;;;;;;3.23;70.72;99848.53;1663832;86;21461;-63
2020/12/25 20:25:26;;;;;;;3.45;2.00;;;;;;;3.20;70.69;99856.98;1664178;86;21239;-62
2020/12/25 20:27:53;;;;;;;4.75;2.12;;;;;;;3.18;70.58;99849.53;1663896;86;21437;-62
2020/12/25 20:30:21;;;;;;;3.87;1.70;;;;;;;3.17;70.66;99843.78;1663816;86;21892;-63
2020/12/25 20:32:48;;;;;;;6.65;3.00;;;;;;;3.17;70.95;99843.27;1663895;86;21441;-61
2020/12/25 20:35:16;;;;;;;5.83;2.40;;;;;;;3.16;70.82;99849.70;1663816;86;21278;-62